Time;durP1;ratioP1;P1;durP2;ratioP2;P2;SDS_P1;SDS_P2;PMS_P1;PMS_P2;Temp;Humidity;BMP_temperature;BMP_pressure;BME280_temperature;BME280_humidity;BME280_pressure;Samples;Min_cycle;Max_cycle;Signal;HPM_P1;HPM_P2
2022/08/27 00:00:18;;;;;;;7.22;5.15;;;;;;;22.01;80.16;95349.28;5018094;28;20222;-82
2022/08/27 00:02:46;;;;;;;5.57;5.10;;;;;;;22.09;79.76;95350.66;5018389;28;20226;-84
2022/08/27 00:05:16;;;;;;;5.97;4.93;;;;;;;22.14;78.93;95358.53;5018374;28;20658;-84
2022/08/27 00:07:44;;;;;;;5.78;5.20;;;;;;;22.16;78.22;95353.03;5018341;28;20226;-84
2022/08/27 00:10:14;;;;;;;6.95;5.10;;;;;;;22.13;78.13;95349.06;5018108;28;20195;-83
2022/08/27 00:12:41;;;;;;;5.00;4.50;;;;;;;22.04;79.23;95353.25;5018094;28;20707;-83
2022/08/27 00:15:09;;;;;;;5.63;5.05;;;;;;;22.09;78.39;95360.34;5019021;28;20225;-83
2022/08/27 00:17:35;;;;;;;5.10;4.70;;;;;;;22.00;78.95;95355.56;5018475;28;20314;-83
2022/08/27 00:20:05;;;;;;;5.32;4.70;;;;;;;22.13;78.17;95362.19;5018980;28;20219;-82
2022/08/27 00:22:32;;;;;;;6.10;4.55;;;;;;;22.15;78.69;95373.22;5016393;28;20849;-83
2022/08/27 00:24:59;;;;;;;5.90;5.22;;;;;;;22.15;78.06;95369.81;5017687;28;20211;-84
2022/08/27 00:27:25;;;;;;;4.75;4.30;;;;;;;22.12;78.21;95372.97;5018645;28;20229;-83
2022/08/27 00:29:52;;;;;;;5.45;4.47;;;;;;;22.03;78.61;95377.88;5018896;28;20194;-84
2022/08/27 00:32:18;;;;;;;5.10;4.43;;;;;;;22.04;78.42;95377.63;5017416;28;20207;-84
2022/08/27 00:34:45;;;;;;;8.48;4.85;;;;;;;22.04;78.70;95384.69;5018421;28;20281;-83
2022/08/27 00:37:11;;;;;;;5.28;4.72;;;;;;;21.98;79.02;95385.69;5018430;28;20237;-82
2022/08/27 00:39:39;;;;;;;4.82;4.22;;;;;;;21.92;79.79;95384.09;5017913;28;20269;-83
2022/08/27 00:42:07;;;;;;;4.93;4.43;;;;;;;21.93;79.55;95375.97;5011216;28;20198;-82
2022/08/27 00:44:33;;;;;;;6.68;4.75;;;;;;;21.94;79.58;95381.97;5017816;28;20194;-84
2022/08/27 00:47:04;;;;;;;5.22;4.60;;;;;;;21.95;79.57;95376.47;5017550;28;20706;-83
2022/08/27 00:49:36;;;;;;;6.68;4.70;;;;;;;21.96;79.63;95370.19;5017907;28;20195;-84
2022/08/27 00:52:07;;;;;;;4.95;4.32;;;;;;;22.00;79.34;95363.44;5017152;28;20578;-84
2022/08/27 00:54:34;;;;;;;5.70;5.10;;;;;;;22.08;78.79;95364.81;5017189;28;20206;-83
2022/08/27 00:57:03;;;;;;;6.00;4.70;;;;;;;22.16;78.50;95366.16;5015982;28;20296;-83
2022/08/27 00:59:29;;;;;;;5.28;4.60;;;;;;;22.14;78.78;95369.03;5007732;28;20219;-84
2022/08/27 01:04:42;;;;;;;5.97;4.40;;;;;;;22.26;78.32;95358.34;5017330;28;20213;-84
2022/08/27 01:07:10;;;;;;;5.47;4.97;;;;;;;22.21;79.93;95361.72;5011222;28;20230;-84
2022/08/27 01:09:38;;;;;;;6.38;4.65;;;;;;;22.15;80.61;95361.94;5017446;28;20195;-84
2022/08/27 01:12:06;;;;;;;5.07;4.68;;;;;;;22.12;80.78;95363.25;5016768;28;20195;-83
2022/08/27 01:14:33;;;;;;;6.90;5.10;;;;;;;22.05;79.49;95360.84;5018095;28;20203;-82
2022/08/27 01:17:02;;;;;;;5.07;4.47;;;;;;;22.04;79.79;95358.47;5016623;28;20285;-83
2022/08/27 01:19:33;;;;;;;6.13;5.20;;;;;;;22.11;79.60;95360.91;5016553;28;20268;-84
2022/08/27 01:22:07;;;;;;;6.20;5.55;;;;;;;22.17;79.13;95359.84;5016088;28;20199;-84
2022/08/27 01:24:38;;;;;;;9.48;5.35;;;;;;;22.16;78.69;95356.44;5015050;28;20191;-83
2022/08/27 01:27:08;;;;;;;8.30;5.53;;;;;;;22.20;78.00;95354.09;5014071;28;20277;-84
2022/08/27 01:29:34;;;;;;;5.63;5.10;;;;;;;22.18;78.30;95353.56;5013625;28;20194;-84
2022/08/27 01:32:08;;;;;;;9.55;5.47;;;;;;;22.18;78.17;95343.06;5013901;28;20214;-83
2022/08/27 01:34:34;;;;;;;6.40;5.68;;;;;;;22.15;78.19;95343.59;5014224;28;20206;-84
2022/08/27 01:37:01;;;;;;;7.10;5.75;;;;;;;22.10;79.00;95343.56;5014490;28;20250;-84
2022/08/27 01:39:27;;;;;;;7.15;5.82;;;;;;;22.05;79.34;95352.19;5013749;28;20199;-82
2022/08/27 01:42:02;;;;;;;6.45;5.20;;;;;;;22.00;79.62;95349.53;5013354;28;20217;-83
2022/08/27 01:44:28;;;;;;;7.88;5.55;;;;;;;22.08;78.91;95348.28;5013808;28;20199;-84
2022/08/27 01:46:55;;;;;;;6.15;5.13;;;;;;;22.12;78.85;95354.59;5013291;28;20203;-83
2022/08/27 01:49:21;;;;;;;6.15;5.55;;;;;;;22.14;78.59;95358.53;5014296;28;20199;-84
2022/08/27 01:51:48;;;;;;;8.02;6.03;;;;;;;22.18;78.29;95358.81;5014061;28;20214;-84
2022/08/27 01:54:14;;;;;;;5.68;5.10;;;;;;;22.22;78.08;95360.69;5013623;28;20245;-82
2022/08/27 01:56:41;;;;;;;7.25;5.75;;;;;;;22.28;77.70;95359.66;5013223;28;20202;-83
2022/08/27 01:59:08;;;;;;;7.63;5.53;;;;;;;22.29;76.83;95361.25;5014447;28;20194;-83
2022/08/27 02:01:35;;;;;;;8.07;5.82;;;;;;;22.29;76.68;95358.63;5013165;28;20215;-84
2022/08/27 02:04:02;;;;;;;6.28;5.68;;;;;;;22.33;76.58;95357.06;5013155;28;20754;-84
2022/08/27 02:06:29;;;;;;;7.20;5.82;;;;;;;22.32;76.81;95354.72;5014022;28;20194;-83
2022/08/27 02:08:55;;;;;;;7.60;5.60;;;;;;;22.33;76.75;95357.06;5012997;28;20230;-84
2022/08/27 02:11:21;;;;;;;6.43;5.82;;;;;;;22.35;76.65;95357.59;5013298;28;20195;-84
2022/08/27 02:13:48;;;;;;;7.25;5.85;;;;;;;22.31;77.15;95351.28;5014081;28;20214;-83
2022/08/27 02:16:16;;;;;;;6.55;5.95;;;;;;;22.29;77.23;95348.13;5014369;28;20195;-83
2022/08/27 02:18:42;;;;;;;8.00;5.47;;;;;;;22.32;76.84;95352.09;5013272;28;20626;-82
2022/08/27 02:21:09;;;;;;;8.20;5.88;;;;;;;22.29;76.38;95342.88;5013806;28;20214;-84
2022/08/27 02:23:36;;;;;;;8.13;6.15;;;;;;;22.27;76.47;95342.34;5013700;28;20650;-82
2022/08/27 02:26:03;;;;;;;6.65;5.97;;;;;;;22.30;76.22;95347.09;5013501;28;20641;-84
2022/08/27 02:28:29;;;;;;;6.90;6.07;;;;;;;22.30;76.36;95344.47;5012455;28;20222;-84
2022/08/27 02:30:55;;;;;;;6.72;6.05;;;;;;;22.35;76.03;95344.47;5012130;28;20697;-83
2022/08/27 02:33:23;;;;;;;6.72;5.70;;;;;;;22.27;76.61;95334.47;5012941;28;20222;-83
2022/08/27 02:35:49;;;;;;;6.88;6.03;;;;;;;22.25;76.71;95335.78;5012529;28;20245;-83
2022/08/27 02:38:16;;;;;;;6.28;5.68;;;;;;;22.21;77.32;95337.31;5012449;28;20227;-82
2022/08/27 02:40:42;;;;;;;8.50;6.10;;;;;;;22.22;77.33;95333.66;5012104;28;20222;-83
2022/08/27 02:43:09;;;;;;;8.63;5.95;;;;;;;22.20;77.67;95335.75;5011867;28;20261;-84
2022/08/27 02:45:36;;;;;;;6.60;5.85;;;;;;;22.22;76.99;95337.06;5012547;28;20217;-83
2022/08/27 02:48:03;;;;;;;7.43;5.32;;;;;;;22.18;77.32;95330.75;5010849;28;20219;-84
2022/08/27 02:50:31;;;;;;;6.32;5.10;;;;;;;22.17;77.15;95331.00;5012058;28;20191;-83
2022/08/27 02:52:57;;;;;;;6.57;5.75;;;;;;;22.11;78.17;95326.81;5011789;28;20642;-84
2022/08/27 02:55:24;;;;;;;6.20;4.97;;;;;;;22.15;77.85;95322.59;5015436;28;20225;-83
2022/08/27 02:57:50;;;;;;;5.20;4.70;;;;;;;22.16;77.87;95321.56;5015694;28;20219;-83
2022/08/27 03:00:19;;;;;;;8.32;5.07;;;;;;;22.12;77.76;95331.78;5014570;28;20214;-83
2022/08/27 03:02:46;;;;;;;5.50;4.78;;;;;;;22.13;77.60;95327.34;5015960;28;20264;-84
2022/08/27 03:05:14;;;;;;;5.43;4.88;;;;;;;22.14;78.15;95326.25;5016252;28;20191;-83
2022/08/27 03:07:42;;;;;;;4.85;4.30;;;;;;;22.10;78.32;95330.47;5015405;28;20270;-83
2022/08/27 03:10:12;;;;;;;5.13;4.63;;;;;;;22.07;78.30;95331.75;5016118;28;20744;-83
2022/08/27 03:12:39;;;;;;;5.65;4.97;;;;;;;22.10;79.24;95331.25;5012731;28;20211;-83
2022/08/27 03:15:08;;;;;;;6.82;5.15;;;;;;;22.11;79.72;95334.66;5017173;28;20191;-83
2022/08/27 03:20:19;;;;;;;4.80;4.30;;;;;;;21.82;82.53;95340.22;5015813;28;20226;-84
2022/08/27 03:22:47;;;;;;;5.20;4.47;;;;;;;21.80;82.91;95349.38;5016339;28;20215;-83
2022/08/27 03:25:15;;;;;;;5.28;4.70;;;;;;;21.85;82.98;95346.81;5017052;28;20190;-84
2022/08/27 03:27:45;;;;;;;4.45;4.05;;;;;;;21.80;81.91;95341.53;5015232;28;20639;-83
2022/08/27 03:30:15;;;;;;;4.95;4.45;;;;;;;21.70;84.06;95344.88;5010966;28;20199;-82
2022/08/27 03:32:42;;;;;;;4.60;4.20;;;;;;;21.70;84.31;95348.28;4998152;28;20258;-84
2022/08/27 03:35:10;;;;;;;5.00;4.25;;;;;;;21.75;84.71;95354.59;5010265;28;20198;-83
2022/08/27 03:37:36;;;;;;;4.60;4.28;;;;;;;21.80;84.32;95352.00;5016866;28;20996;-83
2022/08/27 03:40:06;;;;;;;4.70;4.30;;;;;;;21.86;83.62;95345.75;5016213;28;20207;-82
2022/08/27 03:42:33;;;;;;;4.70;4.30;;;;;;;21.88;84.45;95343.69;5007993;28;20216;-84
2022/08/27 03:45:00;;;;;;;4.80;4.38;;;;;;;21.86;84.75;95351.78;5015848;28;20191;-82
2022/08/27 03:47:26;;;;;;;5.30;4.80;;;;;;;21.79;84.57;95350.41;5015750;28;20223;-83
2022/08/27 03:49:53;;;;;;;6.05;5.35;;;;;;;21.65;85.52;95342.22;5015742;28;20203;-83
2022/08/27 03:52:19;;;;;;;5.63;5.13;;;;;;;21.58;86.70;95347.66;5015488;28;20191;-84
2022/08/27 03:54:46;;;;;;;5.78;5.28;;;;;;;21.60;85.60;95340.34;5015894;28;20203;-83
2022/08/27 03:57:14;;;;;;;5.95;5.45;;;;;;;21.64;85.73;95338.00;5015217;28;20227;-83
2022/08/27 03:59:40;;;;;;;5.65;5.05;;;;;;;21.65;85.62;95342.22;5017003;28;20199;-83
2022/08/27 04:02:07;;;;;;;5.88;5.00;;;;;;;21.67;85.83;95346.16;5014796;28;20813;-84
2022/08/27 04:04:34;;;;;;;5.57;5.05;;;;;;;21.66;85.83;95344.59;5016670;28;20230;-83
2022/08/27 04:07:00;;;;;;;5.40;4.90;;;;;;;21.70;85.62;95344.88;5013371;28;20694;-83
2022/08/27 04:09:27;;;;;;;5.53;5.03;;;;;;;21.74;84.51;95343.34;5017468;28;20686;-82
2022/08/27 04:11:53;;;;;;;5.43;4.93;;;;;;;21.79;83.92;95342.56;5015890;28;20207;-82
2022/08/27 04:14:21;;;;;;;7.72;4.93;;;;;;;21.76;84.77;95346.47;5016590;28;20222;-83
2022/08/27 04:16:48;;;;;;;6.07;5.47;;;;;;;21.77;84.05;95347.25;5016276;28;20210;-83
2022/08/27 04:19:14;;;;;;;6.65;5.13;;;;;;;21.76;84.13;95343.84;5016982;28;20210;-83
2022/08/27 04:21:41;;;;;;;5.38;4.97;;;;;;;21.78;84.34;95349.63;5015780;28;20219;-84
2022/08/27 04:24:08;;;;;;;5.57;4.82;;;;;;;21.80;84.18;95357.25;5016303;28;20280;-83
2022/08/27 04:26:35;;;;;;;5.53;5.00;;;;;;;21.78;84.84;95359.31;5016093;28;20700;-84
2022/08/27 04:29:01;;;;;;;6.20;5.05;;;;;;;21.75;84.85;95362.44;5015608;28;20231;-83
2022/08/27 04:31:29;;;;;;;6.15;5.55;;;;;;;21.63;86.47;95357.41;5015062;28;20214;-83
2022/08/27 04:33:55;;;;;;;5.15;4.55;;;;;;;21.65;85.06;95353.47;5015325;28;20296;-82
2022/08/27 04:36:22;;;;;;;4.60;4.20;;;;;;;21.70;83.46;95364.00;5015999;28;20206;-83
2022/08/27 04:38:48;;;;;;;5.35;4.55;;;;;;;21.71;83.74;95368.22;5015384;28;20737;-83
2022/08/27 04:41:21;;;;;;;4.93;4.13;;;;;;;21.71;83.11;95364.81;5015143;28;20669;-83
2022/08/27 04:43:49;;;;;;;4.82;4.43;;;;;;;21.77;82.54;95368.22;5015644;28;20341;-83
2022/08/27 04:46:19;;;;;;;4.82;4.45;;;;;;;21.74;83.43;95360.91;5015794;28;20207;-82
2022/08/27 04:48:47;;;;;;;4.93;4.38;;;;;;;21.72;83.09;95361.16;5015100;28;20234;-83
2022/08/27 04:51:14;;;;;;;5.13;4.65;;;;;;;21.67;83.78;95364.50;5014965;28;20226;-84
2022/08/27 04:53:40;;;;;;;4.80;4.40;;;;;;;21.67;83.91;95361.09;5015886;28;20802;-83
2022/08/27 04:56:07;;;;;;;4.88;4.47;;;;;;;21.68;83.47;95365.31;5015817;28;20199;-83
2022/08/27 04:58:33;;;;;;;5.45;4.55;;;;;;;21.69;83.33;95367.66;5015130;28;20241;-84
2022/08/27 05:01:00;;;;;;;5.20;4.50;;;;;;;21.67;84.95;95376.81;5015418;28;20222;-84
2022/08/27 05:03:27;;;;;;;4.78;4.22;;;;;;;21.68;84.01;95373.16;5015888;28;20269;-83
2022/08/27 05:06:00;;;;;;;4.88;4.38;;;;;;;21.67;83.62;95366.34;5016506;28;20203;-84
2022/08/27 05:08:27;;;;;;;4.38;3.92;;;;;;;21.66;83.59;95370.00;5013979;28;20230;-83
2022/08/27 05:10:53;;;;;;;4.97;4.47;;;;;;;21.61;84.05;95364.72;5014690;28;20226;-82
2022/08/27 05:13:21;;;;;;;5.25;4.68;;;;;;;21.63;84.29;95367.88;5015465;28;20226;-83
2022/08/27 05:15:48;;;;;;;4.65;4.25;;;;;;;21.70;84.14;95371.09;5016700;28;20682;-84
2022/08/27 05:18:15;;;;;;;4.07;3.67;;;;;;;21.68;83.89;95363.47;5015185;28;20234;-83
2022/08/27 05:20:43;;;;;;;4.28;3.88;;;;;;;21.70;83.75;95365.84;5015095;28;20207;-83
2022/08/27 05:23:11;;;;;;;4.22;3.92;;;;;;;21.64;83.96;95365.00;5015598;28;20273;-82
2022/08/27 05:25:39;;;;;;;5.07;4.10;;;;;;;21.69;83.59;95374.75;5015310;28;20207;-84
2022/08/27 05:28:05;;;;;;;4.10;3.80;;;;;;;21.71;82.86;95368.22;5014287;28;20642;-83
2022/08/27 05:30:35;;;;;;;4.35;3.95;;;;;;;21.74;82.78;95366.94;5014934;28;20213;-84
2022/08/27 05:33:02;;;;;;;5.13;4.22;;;;;;;21.76;82.54;95364.81;5015265;28;20289;-82
2022/08/27 05:35:28;;;;;;;4.20;3.80;;;;;;;21.80;82.61;95372.97;5015365;28;20203;-82
2022/08/27 05:37:54;;;;;;;4.40;4.00;;;;;;;21.76;82.74;95361.41;5014329;28;20230;-83
2022/08/27 05:40:22;;;;;;;4.72;4.20;;;;;;;21.69;82.76;95370.28;5014532;28;20230;-83
2022/08/27 05:42:49;;;;;;;4.43;4.03;;;;;;;21.72;83.19;95366.38;5014352;28;20234;-83
2022/08/27 05:45:15;;;;;;;4.20;3.80;;;;;;;21.71;83.92;95367.41;5015024;28;20210;-83
2022/08/27 05:47:42;;;;;;;4.60;3.97;;;;;;;21.64;84.47;95362.38;5014680;28;20256;-83
2022/08/27 05:50:08;;;;;;;4.30;4.00;;;;;;;21.61;86.85;95355.03;5014970;28;20206;-83
2022/08/27 05:52:35;;;;;;;4.50;4.10;;;;;;;21.71;84.96;95362.97;5014502;28;20222;-83
2022/08/27 05:55:02;;;;;;;5.28;4.07;;;;;;;21.74;83.71;95360.91;5014839;28;20207;-84
2022/08/27 05:57:30;;;;;;;4.28;3.88;;;;;;;21.79;83.94;95359.06;5014834;28;20230;-83
2022/08/27 06:02:41;;;;;;;4.75;4.35;;;;;;;21.79;84.38;95371.38;5014337;28;20326;-84
2022/08/27 06:05:08;;;;;;;4.47;4.07;;;;;;;21.82;84.26;95371.69;5014719;28;20206;-83
2022/08/27 06:07:34;;;;;;;4.80;4.22;;;;;;;21.91;83.79;95372.00;5012263;28;20233;-83
2022/08/27 06:10:01;;;;;;;4.43;4.03;;;;;;;21.96;83.15;95372.81;5014659;28;20205;-83
2022/08/27 06:12:28;;;;;;;4.38;3.97;;;;;;;21.97;83.20;95374.41;5014183;28;20664;-83
2022/08/27 06:14:56;;;;;;;4.75;3.80;;;;;;;22.06;82.24;95382.63;5014503;28;20210;-83
2022/08/27 06:17:23;;;;;;;3.60;3.22;;;;;;;22.08;82.16;95377.13;5014535;28;20226;-84
2022/08/27 06:19:49;;;;;;;5.05;3.90;;;;;;;22.00;83.08;95379.16;5015249;28;20234;-83
2022/08/27 06:22:16;;;;;;;3.88;3.53;;;;;;;21.92;83.42;95374.38;5014198;28;20746;-83
2022/08/27 06:24:43;;;;;;;4.30;3.90;;;;;;;22.00;82.39;95370.50;5015055;28;20202;-84
2022/08/27 06:27:12;;;;;;;4.05;3.70;;;;;;;22.05;82.70;95368.72;5014641;28;20230;-83
2022/08/27 06:29:39;;;;;;;4.10;3.80;;;;;;;22.11;80.89;95376.63;5013987;28;20202;-84
2022/08/27 06:32:08;;;;;;;4.85;4.43;;;;;;;22.12;81.62;95379.00;5013558;28;20194;-83
2022/08/27 06:34:35;;;;;;;3.90;3.55;;;;;;;22.18;80.85;95374.56;5014344;28;20273;-83
2022/08/27 06:37:01;;;;;;;3.78;3.47;;;;;;;22.22;80.59;95371.16;5013430;28;20230;-84
2022/08/27 06:39:28;;;;;;;3.83;3.42;;;;;;;22.23;80.65;95372.75;5014052;28;20789;-82
2022/08/27 06:41:54;;;;;;;4.40;4.00;;;;;;;22.27;80.71;95373.84;5012965;28;20226;-83
2022/08/27 06:44:23;;;;;;;3.90;3.47;;;;;;;22.33;80.42;95369.38;5013560;28;20591;-83
2022/08/27 06:46:50;;;;;;;4.05;3.60;;;;;;;22.30;81.51;95373.31;5013168;28;20289;-83
2022/08/27 06:49:18;;;;;;;4.10;3.80;;;;;;;22.31;81.82;95376.75;5012685;28;20229;-82
2022/08/27 06:51:46;;;;;;;4.53;4.10;;;;;;;22.27;81.96;95376.44;5012434;28;20202;-82
2022/08/27 06:54:14;;;;;;;5.43;3.92;;;;;;;22.33;80.56;95378.03;5012936;28;20773;-83
2022/08/27 06:56:42;;;;;;;5.88;4.30;;;;;;;22.32;80.20;95379.09;5012488;28;20233;-83
2022/08/27 06:59:11;;;;;;;5.32;4.93;;;;;;;22.24;79.73;95382.19;5013231;28;20202;-84
2022/08/27 07:01:40;;;;;;;5.78;4.80;;;;;;;22.25;79.37;95381.16;5012832;28;20227;-82
2022/08/27 07:04:10;;;;;;;5.13;4.72;;;;;;;22.16;80.51;95380.03;5012343;28;20249;-82
2022/08/27 07:06:39;;;;;;;4.88;4.47;;;;;;;22.24;80.50;95378.78;5011898;28;20235;-83
2022/08/27 07:09:07;;;;;;;5.50;5.00;;;;;;;22.25;80.92;95375.13;5012061;28;20222;-83
2022/08/27 07:11:33;;;;;;;6.03;5.53;;;;;;;22.26;80.43;95379.31;5012403;28;20206;-83
2022/08/27 07:14:00;;;;;;;5.97;5.47;;;;;;;22.31;79.97;95387.22;5012105;28;20229;-83
2022/08/27 07:16:29;;;;;;;6.72;5.80;;;;;;;22.32;79.52;95380.94;5011793;28;20199;-83
2022/08/27 07:18:58;;;;;;;6.35;5.80;;;;;;;22.30;80.49;95388.28;5010506;28;20231;-82
2022/08/27 07:21:25;;;;;;;6.40;5.80;;;;;;;22.30;80.02;95386.44;5010320;28;20230;-83
2022/08/27 07:23:57;;;;;;;7.00;6.35;;;;;;;22.32;81.82;95386.19;5010880;28;20254;-83
2022/08/27 07:26:24;;;;;;;7.05;6.43;;;;;;;22.26;81.87;95393.22;5011250;28;20290;-82
2022/08/27 07:28:52;;;;;;;7.35;6.75;;;;;;;22.26;81.87;95389.81;5010040;28;20230;-83
2022/08/27 07:31:21;;;;;;;7.75;7.15;;;;;;;22.33;81.98;95396.41;5011494;28;20310;-83
2022/08/27 07:33:48;;;;;;;7.72;7.03;;;;;;;22.38;81.77;95403.50;5010126;28;20235;-82
2022/08/27 07:36:14;;;;;;;8.10;7.30;;;;;;;22.42;81.45;95401.19;5010652;28;20621;-82
2022/08/27 07:38:41;;;;;;;7.93;7.32;;;;;;;22.45;80.97;95401.47;5010047;28;20649;-82
2022/08/27 07:41:12;;;;;;;9.00;8.20;;;;;;;22.50;79.99;95400.72;5010863;28;20239;-84
2022/08/27 07:46:24;;;;;;;9.20;8.23;;;;;;;22.51;80.16;95407.53;5014016;28;20512;-82
2022/08/27 07:48:54;;;;;;;8.55;7.85;;;;;;;22.51;79.46;95410.94;5013166;28;20242;-83
2022/08/27 07:51:23;;;;;;;8.18;7.50;;;;;;;22.51;80.01;95399.66;5014707;28;20206;-83
2022/08/27 07:53:49;;;;;;;8.52;7.70;;;;;;;22.55;79.23;95403.34;5015879;28;20222;-84
2022/08/27 07:56:17;;;;;;;8.52;7.82;;;;;;;22.54;80.58;95413.03;5017526;28;20253;-83
2022/08/27 07:58:44;;;;;;;8.55;7.75;;;;;;;22.63;81.32;95408.09;5015407;28;20238;-83
2022/08/27 08:01:11;;;;;;;8.07;7.28;;;;;;;22.71;80.95;95410.22;5016901;28;20249;-83
2022/08/27 08:03:37;;;;;;;9.80;7.70;;;;;;;22.72;80.66;95407.34;5016513;28;20656;-82
2022/08/27 08:06:05;;;;;;;7.82;7.22;;;;;;;22.72;81.52;95417.84;5017906;28;20203;-84
2022/08/27 08:08:33;;;;;;;7.78;7.07;;;;;;;22.73;81.91;95416.00;5015948;28;20265;-83
2022/08/27 08:11:01;;;;;;;8.30;7.60;;;;;;;22.73;80.80;95416.00;5017097;28;20261;-84
2022/08/27 08:13:29;;;;;;;8.02;7.15;;;;;;;22.66;79.73;95421.50;5016841;28;20253;-83
2022/08/27 08:15:57;;;;;;;7.07;6.47;;;;;;;22.61;79.05;95423.31;5017136;28;20245;-83
2022/08/27 08:18:23;;;;;;;6.78;6.18;;;;;;;22.58;79.23;95426.44;5016574;28;20710;-83
2022/08/27 08:20:50;;;;;;;6.93;6.22;;;;;;;22.60;79.22;95424.34;5017324;28;20242;-83
2022/08/27 08:23:16;;;;;;;5.70;5.30;;;;;;;22.54;78.93;95426.16;5018162;28;20234;-84
2022/08/27 08:25:43;;;;;;;5.22;4.82;;;;;;;22.51;79.48;95426.69;5017178;28;20206;-84
2022/08/27 08:28:10;;;;;;;5.05;4.65;;;;;;;22.57;79.97;95422.25;5015560;28;20234;-83
2022/08/27 08:30:38;;;;;;;4.47;4.18;;;;;;;22.54;78.48;95426.16;5014950;28;20210;-82
2022/08/27 08:33:04;;;;;;;4.38;4.07;;;;;;;22.57;78.08;95427.47;5015187;28;20223;-83
2022/08/27 08:35:30;;;;;;;8.60;7.88;;;;;;;22.61;78.19;95423.31;5015352;28;20682;-83
2022/08/27 08:37:57;;;;;;;12.57;11.38;;;;;;;22.67;78.15;95425.72;5013952;28;20226;-84
2022/08/27 08:40:30;;;;;;;7.10;6.40;;;;;;;22.75;77.91;95430.47;5014818;28;20237;-84
2022/08/27 08:42:57;;;;;;;4.50;4.10;;;;;;;22.74;77.55;95431.50;5015643;28;20226;-84
2022/08/27 08:45:29;;;;;;;5.25;4.20;;;;;;;22.71;76.22;95437.25;5015934;28;20203;-84
2022/08/27 08:48:04;;;;;;;5.30;4.90;;;;;;;22.73;76.53;95429.13;5014554;28;20234;-82
2022/08/27 08:50:38;;;;;;;4.90;4.47;;;;;;;22.80;77.11;95434.97;5014558;28;20187;-83
2022/08/27 08:53:09;;;;;;;4.95;4.55;;;;;;;22.82;76.24;95422.38;5014715;28;20252;-83
2022/08/27 08:55:42;;;;;;;4.60;4.20;;;;;;;22.89;75.41;95432.66;5015703;28;20211;-83
2022/08/27 08:58:15;;;;;;;4.68;4.38;;;;;;;22.95;75.75;95426.34;5014689;28;20234;-83
2022/08/27 09:00:44;;;;;;;5.30;4.80;;;;;;;23.04;74.47;95430.06;5014103;28;20199;-83
2022/08/27 09:03:14;;;;;;;4.45;4.15;;;;;;;23.08;75.26;95426.69;5014539;28;20230;-84
2022/08/27 09:05:46;;;;;;;4.95;4.40;;;;;;;23.12;75.11;95424.31;5014679;28;20249;-83
2022/08/27 09:08:18;;;;;;;5.00;4.60;;;;;;;23.15;75.72;95430.88;5013692;28;20233;-83
2022/08/27 09:10:51;;;;;;;5.18;4.65;;;;;;;23.19;74.50;95429.31;5014086;28;20289;-82
2022/08/27 09:13:22;;;;;;;4.88;4.53;;;;;;;23.13;74.80;95428.50;5015996;28;20218;-82
2022/08/27 09:15:51;;;;;;;4.70;4.30;;;;;;;23.13;73.51;95432.97;5015527;28;20578;-84
2022/08/27 09:18:19;;;;;;;4.82;4.35;;;;;;;23.13;73.61;95432.97;5014815;28;20242;-82
2022/08/27 09:20:49;;;;;;;4.88;4.38;;;;;;;23.17;73.55;95429.59;5014050;28;20206;-84
2022/08/27 09:23:23;;;;;;;4.72;4.32;;;;;;;23.19;73.67;95427.50;5015736;28;20231;-83
2022/08/27 09:25:50;;;;;;;5.35;4.88;;;;;;;23.11;73.02;95433.22;5015264;28;20294;-83
2022/08/27 09:31:12;;;;;;;11.00;10.07;;;;;;;23.06;73.88;95441.13;5015338;28;20198;-81
2022/08/27 09:33:39;;;;;;;6.53;6.03;;;;;;;23.06;73.44;95439.28;5015712;28;20277;-82
2022/08/27 09:36:09;;;;;;;9.00;8.10;;;;;;;23.08;73.89;95441.66;5017224;28;20210;-84
2022/08/27 09:38:37;;;;;;;7.78;7.07;;;;;;;23.12;74.24;95434.81;5015499;28;20246;-84
2022/08/27 09:41:07;;;;;;;7.72;7.13;;;;;;;23.07;74.94;95440.06;5014960;28;20213;-84
2022/08/27 09:43:35;;;;;;;6.13;5.60;;;;;;;23.13;75.04;95435.59;5015274;28;20227;-83
2022/08/27 09:46:06;;;;;;;11.95;10.90;;;;;;;23.15;75.54;95441.38;5014955;28;20198;-83
2022/08/27 09:48:35;;;;;;;7.28;6.57;;;;;;;23.25;73.46;95431.72;5014392;28;20234;-83
2022/08/27 09:51:08;;;;;;;21.13;19.23;;;;;;;23.40;73.80;95423.84;5014203;28;20210;-83
2022/08/27 09:53:42;;;;;;;15.88;14.38;;;;;;;23.34;75.00;95430.13;5015066;28;20250;-83
2022/08/27 09:56:21;;;;;;;19.20;16.85;;;;;;;23.51;74.43;95426.47;5014379;28;20202;-83
2022/08/27 09:58:51;;;;;;;11.27;10.27;;;;;;;23.72;72.35;95420.22;5013814;28;20756;-83
2022/08/27 10:01:20;;;;;;;8.48;6.53;;;;;;;23.86;68.55;95420.50;5014575;28;20214;-83
2022/08/27 10:03:48;;;;;;;10.13;7.47;;;;;;;23.93;68.16;95418.38;5013581;28;20288;-83
2022/08/27 10:06:26;;;;;;;18.08;14.98;;;;;;;23.97;68.12;95416.81;5015096;28;20572;-84
2022/08/27 10:08:57;;;;;;;11.40;8.30;;;;;;;24.06;70.15;95418.63;5012517;28;20664;-83
2022/08/27 10:11:30;;;;;;;7.68;6.90;;;;;;;24.22;70.50;95411.50;5014618;28;20227;-83
2022/08/27 10:14:00;;;;;;;8.90;8.00;;;;;;;24.28;69.93;95407.81;5015774;28;20280;-83
2022/08/27 10:16:46;;;;;;;6.53;5.93;;;;;;;24.17;70.09;95406.25;5014986;28;20559;-83
2022/08/27 10:19:26;;;;;;;6.88;5.55;;;;;;;24.11;69.34;95409.94;5013313;28;20223;-84
2022/08/27 10:22:00;;;;;;;6.80;6.00;;;;;;;24.18;69.89;95409.66;5013484;28;20264;-83
2022/08/27 10:24:37;;;;;;;4.80;4.30;;;;;;;24.31;68.03;95406.50;5014833;28;20226;-83
2022/08/27 10:27:10;;;;;;;5.20;4.60;;;;;;;24.38;68.12;95399.13;5014078;28;20237;-83
2022/08/27 10:29:45;;;;;;;6.07;5.15;;;;;;;24.41;66.80;95406.50;5013766;28;20203;-84
2022/08/27 10:32:33;;;;;;;5.22;4.78;;;;;;;24.45;65.48;95407.53;5013818;28;20195;-84
2022/08/27 10:35:12;;;;;;;4.75;4.35;;;;;;;24.53;67.22;95411.44;5014194;28;20217;-84
2022/08/27 10:37:48;;;;;;;4.95;4.45;;;;;;;24.61;66.12;95408.28;5013383;28;20226;-83
2022/08/27 10:40:21;;;;;;;4.35;3.95;;;;;;;24.69;65.76;95405.06;5013300;28;20205;-83
2022/08/27 10:42:59;;;;;;;5.20;4.70;;;;;;;24.61;64.95;95411.69;5013468;28;20223;-84
2022/08/27 10:45:40;;;;;;;4.63;4.22;;;;;;;24.52;66.14;95396.72;5014222;28;20202;-83
2022/08/27 10:48:15;;;;;;;5.10;4.60;;;;;;;24.55;66.51;95404.88;5013154;28;20325;-82
2022/08/27 10:50:49;;;;;;;4.57;4.18;;;;;;;24.84;65.76;95397.09;5013710;28;20210;-83
2022/08/27 10:53:26;;;;;;;4.88;4.25;;;;;;;25.26;62.76;95394.00;5015331;28;20225;-84
2022/08/27 10:56:02;;;;;;;4.20;3.90;;;;;;;25.50;62.36;95394.13;5014261;28;20256;-83
2022/08/27 10:58:40;;;;;;;4.05;3.75;;;;;;;25.48;61.77;95390.97;5013799;28;20646;-82
2022/08/27 11:01:16;;;;;;;4.20;3.78;;;;;;;25.60;60.88;95394.03;5013152;28;20674;-83
2022/08/27 11:03:48;;;;;;;6.57;4.35;;;;;;;25.70;62.26;95387.94;5013412;28;20229;-83
2022/08/27 11:06:22;;;;;;;5.05;4.05;;;;;;;25.78;61.31;95384.72;5013774;28;20207;-83
2022/08/27 11:08:55;;;;;;;5.03;3.95;;;;;;;26.02;59.81;95390.81;5012224;28;20234;-84
2022/08/27 11:11:28;;;;;;;4.78;4.38;;;;;;;26.24;58.64;95379.78;5013643;28;20203;-83
2022/08/27 11:13:57;;;;;;;9.00;8.20;;;;;;;26.39;56.94;95384.13;5014093;28;20724;-83
2022/08/27 11:16:33;;;;;;;5.97;5.40;;;;;;;26.57;57.38;95383.41;5016754;28;20229;-83
2022/08/27 11:19:06;;;;;;;5.00;3.70;;;;;;;26.35;57.32;95383.94;5017481;28;20237;-84
2022/08/27 11:21:39;;;;;;;4.05;3.45;;;;;;;26.02;56.50;95377.63;5017118;28;20242;-82
2022/08/27 11:24:20;;;;;;;6.20;3.83;;;;;;;26.03;57.10;95375.75;5017690;28;20226;-83
2022/08/27 11:26:49;;;;;;;4.40;3.75;;;;;;;26.04;57.65;95372.84;5016780;28;20217;-84
2022/08/27 11:29:24;;;;;;;4.22;3.83;;;;;;;25.98;57.39;95368.69;5016750;28;20210;-83
2022/08/27 11:31:56;;;;;;;4.93;3.70;;;;;;;26.18;58.63;95370.31;5016810;28;20232;-83
2022/08/27 11:34:30;;;;;;;3.88;3.15;;;;;;;26.37;56.94;95367.78;5017373;28;20227;-83
2022/08/27 11:37:13;;;;;;;13.07;11.73;;;;;;;26.25;57.20;95365.50;5016519;28;20211;-83
2022/08/27 11:40:01;;;;;;;6.18;5.57;;;;;;;25.98;55.46;95358.13;5017069;28;20211;-83
2022/08/27 11:42:36;;;;;;;8.43;7.63;;;;;;;25.76;57.46;95365.75;5016952;28;20217;-82
2022/08/27 11:45:09;;;;;;;5.47;3.92;;;;;;;25.81;58.20;95371.72;5017431;28;20202;-83
2022/08/27 11:47:36;;;;;;;4.18;3.70;;;;;;;26.02;56.88;95371.56;5016649;28;20222;-83
2022/08/27 11:50:07;;;;;;;5.45;4.35;;;;;;;26.19;55.95;95363.97;5016608;28;20206;-82
2022/08/27 11:52:37;;;;;;;4.03;3.47;;;;;;;26.07;55.96;95366.22;5016474;28;20242;-84